Half Moon — WDE8672 — position and weather

sailwx.info

Track history (hours):
 
Tides and Currents Weather Stations Pressure Air Temp Water Temp Dewpoint Dewpoint Depression Visibility Wind Speed Wind Dir Waves Ship Positions

Half Moon (USA)

Ship's website: http://www.halfmoon.mus.ny.us/

Owner: Holland Village, Inc., Lumberton, NC. More information available from US FCC via Universal Licensing System and Coast Guard Vessel Documentation Center.

Last reported at 2020-Aug-12 16:57 UTC. Time now 2020-Sep-20 02:07 UTC.
Position N 52°30' E 005°05'.
Warning: this ship's position is 38 days out of date.

Length 31 m; draft 2.6 m.

MMSI: 366464000.

Date/timePositionNaut miles runAvg speedWind from/ knotsBaromVisibWave heightAir tempDewpointWater temp
2020-Aug-12 16:57N 52°30' E 005°05'4 2.0
2020-Aug-12 15:00N 52°26' E 005°08'4 4.3
2020-Aug-12 14:01N 52°23' E 005°04'5 3.1
2020-Aug-12 12:31N 52°23' E 004°56'1 0.7
2020-Aug-12 10:30N 52°23' E 004°54'1 1.1
2020-Aug-12 10:00N 52°24' E 004°53'0 0.0
2020-Aug-12 07:53N 52°24' E 004°53'0 0.0
2020-Aug-12 02:59N 52°24' E 004°53'0 0.0
2020-Aug-11 21:29N 52°24' E 004°53'0 0.0
2020-Aug-11 21:00N 52°24' E 004°53'0 0.0
2020-Aug-11 20:01N 52°24' E 004°53'0 0.0
2020-Aug-11 17:31N 52°24' E 004°53'1 0.0
2020-Aug-10 00:30N 52°23' E 004°53'3 2.8
2020-Aug-09 23:30N 52°20' E 004°51'0 0.1
2020-Aug-09 20:00N 52°20' E 004°51'0 0.0
2020-Aug-09 18:30N 52°20' E 004°51'2 0.9
2020-Aug-09 16:30N 52°19' E 004°49'0 0.0
2020-Aug-09 15:00N 52°19' E 004°49'6 2.3
2020-Aug-09 12:28N 52°15' E 004°42'5 3.6
2020-Aug-09 11:00N 52°10' E 004°38'10 0.9
2020-Aug-08 23:28N 52°00' E 004°42'0 0.0
2020-Aug-08 22:28N 52°00' E 004°42'0 0.0
2020-Aug-08 21:28N 52°00' E 004°42'0 0.0
2020-Aug-08 17:30N 52°00' E 004°42'3 1.1
2020-Aug-08 14:30N 51°58' E 004°38'4 2.5
2020-Aug-08 13:00N 51°55' E 004°35'3 2.2
2020-Aug-08 11:30N 51°55' E 004°29'1 1.8
2020-Aug-08 11:00N 51°54' E 004°28'1 0.5
2020-Aug-08 09:30N 51°54' E 004°27'  
Track history (hours):
 
Tides and Currents Weather Stations Pressure Air Temp Water Temp Dewpoint Dewpoint Depression Visibility Wind Speed Wind Dir Waves Ship Positions

Half Moon (USA)

Ship's website: http://www.halfmoon.mus.ny.us/

Owner: Holland Village, Inc., Lumberton, NC. More information available from US FCC via Universal Licensing System and Coast Guard Vessel Documentation Center.

Last reported at 2020-Aug-12 16:57 UTC. Time now 2020-Sep-20 02:07 UTC.
Position N 52°30' E 005°05'.
Warning: this ship's position is 38 days out of date.

Length 31 m; draft 2.6 m.

MMSI: 366464000.

Date/timePositionNaut miles runAvg speedWind from/ knotsBaromVisibWave heightAir tempDewpointWater temp
2020-Aug-12 16:57N 52°30' E 005°05'4 2.0
2020-Aug-12 15:00N 52°26' E 005°08'4 4.3
2020-Aug-12 14:01N 52°23' E 005°04'5 3.1
2020-Aug-12 12:31N 52°23' E 004°56'1 0.7
2020-Aug-12 10:30N 52°23' E 004°54'1 1.1
2020-Aug-12 10:00N 52°24' E 004°53'0 0.0
2020-Aug-12 07:53N 52°24' E 004°53'0 0.0
2020-Aug-12 02:59N 52°24' E 004°53'0 0.0
2020-Aug-11 21:29N 52°24' E 004°53'0 0.0
2020-Aug-11 21:00N 52°24' E 004°53'0 0.0
2020-Aug-11 20:01N 52°24' E 004°53'0 0.0
2020-Aug-11 17:31N 52°24' E 004°53'1 0.0
2020-Aug-10 00:30N 52°23' E 004°53'3 2.8
2020-Aug-09 23:30N 52°20' E 004°51'0 0.1
2020-Aug-09 20:00N 52°20' E 004°51'0 0.0
2020-Aug-09 18:30N 52°20' E 004°51'2 0.9
2020-Aug-09 16:30N 52°19' E 004°49'0 0.0
2020-Aug-09 15:00N 52°19' E 004°49'6 2.3
2020-Aug-09 12:28N 52°15' E 004°42'5 3.6
2020-Aug-09 11:00N 52°10' E 004°38'10 0.9
2020-Aug-08 23:28N 52°00' E 004°42'0 0.0
2020-Aug-08 22:28N 52°00' E 004°42'0 0.0
2020-Aug-08 21:28N 52°00' E 004°42'0 0.0
2020-Aug-08 17:30N 52°00' E 004°42'3 1.1
2020-Aug-08 14:30N 51°58' E 004°38'4 2.5
2020-Aug-08 13:00N 51°55' E 004°35'3 2.2
2020-Aug-08 11:30N 51°55' E 004°29'1 1.8
2020-Aug-08 11:00N 51°54' E 004°28'1 0.5
2020-Aug-08 09:30N 51°54' E 004°27'  

Dump ship's entire track history